Time;durP1;ratioP1;P1;durP2;ratioP2;P2;SDS_P1;SDS_P2;PMS_P1;PMS_P2;Temp;Humidity;BMP_temperature;BMP_pressure;BME280_temperature;BME280_humidity;BME280_pressure;Samples;Min_cycle;Max_cycle;Signal;HPM_P1;HPM_P2
2022/02/02 00:00:08;;;;;;;;;;;20.90;33.20;;;;;;475464;250;1796;-38
2022/02/02 00:02:12;;;;;;;;;;;20.80;33.20;;;;;;475894;250;2141;-38
2022/02/02 00:04:11;;;;;;;;;;;20.80;33.20;;;;;;475404;250;2097;-38
2022/02/02 00:06:15;;;;;;;;;;;20.80;33.20;;;;;;475525;250;2266;-38
2022/02/02 00:08:16;;;;;;;;;;;20.80;33.20;;;;;;475840;250;1904;-38
2022/02/02 00:10:34;;;;;;;;;;;20.80;33.20;;;;;;475476;250;1337;-38
2022/02/02 00:12:19;;;;;;;;;;;20.80;33.20;;;;;;474608;250;1517;-38
2022/02/02 00:14:28;;;;;;;;;;;20.80;33.20;;;;;;475519;250;2320;-38
2022/02/02 00:16:39;;;;;;;;;;;20.80;33.20;;;;;;475219;250;1509;-38
2022/02/02 00:18:45;;;;;;;;;;;20.80;33.20;;;;;;475208;250;2109;-38
2022/02/02 00:20:39;;;;;;;;;;;20.80;33.20;;;;;;474918;250;2350;-38
2022/02/02 00:22:38;;;;;;;;;;;20.80;33.20;;;;;;475313;250;2122;-38
2022/02/02 00:24:49;;;;;;;;;;;20.80;33.20;;;;;;475982;250;2476;-38
2022/02/02 00:26:42;;;;;;;;;;;20.80;33.20;;;;;;475206;250;2065;-38
2022/02/02 00:28:43;;;;;;;;;;;20.80;33.20;;;;;;475515;250;2354;-38
2022/02/02 00:30:40;;;;;;;;;;;20.90;33.30;;;;;;475583;250;2366;-38
2022/02/02 00:32:57;;;;;;;;;;;20.80;33.20;;;;;;475679;251;1241;-38
2022/02/02 00:34:49;;;;;;;;;;;20.80;33.20;;;;;;475490;250;2325;-38
2022/02/02 00:36:55;;;;;;;;;;;20.80;33.30;;;;;;475696;250;1190;-38
2022/02/02 00:38:52;;;;;;;;;;;20.80;33.30;;;;;;475867;250;2360;-38
2022/02/02 00:40:53;;;;;;;;;;;20.80;33.30;;;;;;471242;248;2467;-38
2022/02/02 00:42:54;;;;;;;;;;;20.80;33.40;;;;;;471004;251;2217;-38
2022/02/02 00:44:56;;;;;;;;;;;20.80;33.40;;;;;;475771;250;1082;-38
2022/02/02 00:46:57;;;;;;;;;;;20.80;33.40;;;;;;475594;251;1141;-38
2022/02/02 00:49:03;;;;;;;;;;;20.80;33.40;;;;;;475922;250;1048;-38
2022/02/02 00:51:02;;;;;;;;;;;20.80;33.50;;;;;;475873;250;2431;-38
2022/02/02 00:53:04;;;;;;;;;;;20.80;33.40;;;;;;476082;250;1335;-38
2022/02/02 00:55:05;;;;;;;;;;;20.80;33.40;;;;;;475736;251;1036;-38
2022/02/02 00:57:06;;;;;;;;;;;20.80;33.40;;;;;;475958;250;1404;-38
2022/02/02 00:59:08;;;;;;;;;;;20.80;33.40;;;;;;476036;250;1204;-38
2022/02/02 01:01:09;;;;;;;;;;;20.80;33.50;;;;;;475681;251;1251;-38
2022/02/02 01:03:10;;;;;;;;;;;20.80;33.50;;;;;;475789;250;2148;-38
2022/02/02 01:05:12;;;;;;;;;;;20.70;33.40;;;;;;475899;250;1063;-38
2022/02/02 01:07:20;;;;;;;;;;;20.70;33.50;;;;;;475669;251;1315;-38
2022/02/02 01:09:22;;;;;;;;;;;20.70;33.50;;;;;;475797;250;1368;-38
2022/02/02 01:11:44;;;;;;;;;;;20.70;33.50;;;;;;475427;250;2159;-38
2022/02/02 01:14:40;;;;;;;;;;;20.70;33.50;;;;;;475257;250;2520;-38
2022/02/02 01:17:09;;;;;;;;;;;20.70;33.50;;;;;;475076;250;1720;-38
2022/02/02 01:18:46;;;;;;;;;;;20.70;33.50;;;;;;474780;250;1168;-38
2022/02/02 01:20:49;;;;;;;;;;;20.70;33.50;;;;;;475355;250;2242;-38
2022/02/02 01:29:36;;;;;;;;;;;20.70;33.50;;;;;;476246;249;1064;-38
2022/02/02 01:31:37;;;;;;;;;;;20.70;33.60;;;;;;475849;250;1172;-38
2022/02/02 01:33:39;;;;;;;;;;;20.70;33.60;;;;;;476151;250;1229;-38
2022/02/02 01:35:40;;;;;;;;;;;20.70;33.60;;;;;;475681;251;1171;-38
2022/02/02 01:37:42;;;;;;;;;;;20.70;33.60;;;;;;475679;251;1138;-38
2022/02/02 01:39:44;;;;;;;;;;;20.60;33.60;;;;;;475816;250;1423;-38
2022/02/02 01:41:46;;;;;;;;;;;20.60;33.60;;;;;;475832;250;2325;-38
2022/02/02 01:43:52;;;;;;;;;;;20.70;33.60;;;;;;475747;250;2306;-38
2022/02/02 01:45:49;;;;;;;;;;;20.60;33.50;;;;;;475396;250;2049;-38
2022/02/02 01:48:00;;;;;;;;;;;20.60;33.60;;;;;;475699;251;2644;-38
2022/02/02 01:50:12;;;;;;;;;;;20.60;33.60;;;;;;475602;250;1959;-38
2022/02/02 01:52:22;;;;;;;;;;;20.70;33.50;;;;;;475111;250;1997;-38
2022/02/02 01:54:33;;;;;;;;;;;20.90;33.20;;;;;;475210;250;2390;-38
2022/02/02 01:56:30;;;;;;;;;;;21.10;32.90;;;;;;475385;246;2199;-38
2022/02/02 02:01:01;;;;;;;;;;;21.40;32.50;;;;;;469822;246;1413;-38
2022/02/02 02:03:03;;;;;;;;;;;21.40;32.30;;;;;;475653;251;2196;-38
2022/02/02 02:05:04;;;;;;;;;;;21.50;32.20;;;;;;476112;250;1195;-38
2022/02/02 02:07:05;;;;;;;;;;;21.50;32.10;;;;;;475700;250;1323;-38
2022/02/02 02:09:06;;;;;;;;;;;21.60;32.00;;;;;;475771;251;1064;-38
2022/02/02 02:11:13;;;;;;;;;;;21.70;32.00;;;;;;476042;250;1145;-38
2022/02/02 02:13:13;;;;;;;;;;;21.70;31.90;;;;;;475459;250;2610;-38
2022/02/02 02:15:13;;;;;;;;;;;21.80;32.00;;;;;;475918;250;1914;-38
2022/02/02 02:17:12;;;;;;;;;;;21.80;31.90;;;;;;475651;250;1731;-38
2022/02/02 02:19:13;;;;;;;;;;;21.80;31.80;;;;;;475713;251;1066;-38
2022/02/02 02:21:17;;;;;;;;;;;21.80;31.80;;;;;;475949;247;1548;-38
2022/02/02 02:23:17;;;;;;;;;;;21.90;31.80;;;;;;475532;250;2129;-38
2022/02/02 02:25:17;;;;;;;;;;;21.90;31.70;;;;;;475756;250;1844;-38
2022/02/02 02:27:21;;;;;;;;;;;21.90;31.70;;;;;;475731;250;1305;-38
2022/02/02 02:29:36;;;;;;;;;;;21.90;31.60;;;;;;475590;251;1558;-38
2022/02/02 02:31:34;;;;;;;;;;;21.90;31.60;;;;;;474995;250;1967;-38
2022/02/02 02:33:48;;;;;;;;;;;21.90;31.60;;;;;;475300;250;2556;-38
2022/02/02 02:36:09;;;;;;;;;;;22.00;31.60;;;;;;474731;250;1940;-38
2022/02/02 02:38:13;;;;;;;;;;;22.00;31.50;;;;;;474430;250;1539;-38
2022/02/02 02:40:16;;;;;;;;;;;22.10;31.50;;;;;;474995;250;2033;-38
2022/02/02 02:56:01;;;;;;;;;;;22.20;31.40;;;;;;475993;250;1079;-38
2022/02/02 02:58:09;;;;;;;;;;;22.20;31.30;;;;;;475637;250;2300;-38
2022/02/02 03:00:23;;;;;;;;;;;22.20;31.30;;;;;;475318;250;2253;-38
2022/02/02 03:03:00;;;;;;;;;;;22.20;31.20;;;;;;475654;250;2277;-38
2022/02/02 03:30:32;;;;;;;;;;;22.40;31.30;;;;;;475711;250;1066;-38
2022/02/02 03:32:53;;;;;;;;;;;22.40;31.30;;;;;;475295;250;2092;-38
2022/02/02 03:34:52;;;;;;;;;;;22.40;31.20;;;;;;474775;250;2692;-38
2022/02/02 03:51:24;;;;;;;;;;;22.50;31.20;;;;;;462501;251;1358;-38
2022/02/02 03:53:40;;;;;;;;;;;22.50;31.10;;;;;;475079;250;1850;-38
2022/02/02 03:55:34;;;;;;;;;;;22.50;31.20;;;;;;474833;250;1366;-38
2022/02/02 03:57:36;;;;;;;;;;;22.50;31.20;;;;;;475431;250;2169;-38
2022/02/02 03:59:40;;;;;;;;;;;22.50;31.20;;;;;;475814;250;2346;-38
2022/02/02 04:01:53;;;;;;;;;;;22.50;31.10;;;;;;475420;250;2333;-38
2022/02/02 04:04:05;;;;;;;;;;;22.50;31.10;;;;;;475569;250;2133;-38
2022/02/02 04:06:04;;;;;;;;;;;22.50;31.10;;;;;;475099;250;2251;-38
2022/02/02 04:08:21;;;;;;;;;;;22.50;31.10;;;;;;475655;250;2163;-38
2022/02/02 04:10:11;;;;;;;;;;;22.60;31.10;;;;;;475044;247;2116;-38
2022/02/02 04:12:20;;;;;;;;;;;22.60;31.10;;;;;;475840;250;1191;-38
2022/02/02 04:17:15;;;;;;;;;;;22.60;31.10;;;;;;475716;250;1461;-38
2022/02/02 04:37:53;;;;;;;;;;;22.60;31.00;;;;;;475618;250;1196;-38
2022/02/02 04:51:56;;;;;;;;;;;22.70;31.10;;;;;;475936;250;1223;-38
2022/02/02 04:54:15;;;;;;;;;;;22.70;31.10;;;;;;475103;250;2197;-38
2022/02/02 04:56:19;;;;;;;;;;;22.70;31.00;;;;;;475258;250;2069;-38
2022/02/02 04:58:27;;;;;;;;;;;22.70;31.10;;;;;;475189;250;2272;-38
2022/02/02 05:01:04;;;;;;;;;;;22.70;31.10;;;;;;475370;250;2146;-38
2022/02/02 05:03:36;;;;;;;;;;;22.70;31.00;;;;;;474443;251;2200;-38
2022/02/02 05:07:40;;;;;;;;;;;22.70;31.00;;;;;;465229;250;1641;-38
2022/02/02 05:09:44;;;;;;;;;;;22.70;31.00;;;;;;475559;250;2153;-38
2022/02/02 05:16:53;;;;;;;;;;;22.80;31.00;;;;;;459979;250;1622;-38
2022/02/02 05:19:14;;;;;;;;;;;22.70;31.00;;;;;;475258;250;2419;-38
2022/02/02 05:21:28;;;;;;;;;;;22.80;31.00;;;;;;474723;250;2386;-38
2022/02/02 05:29:20;;;;;;;;;;;22.80;31.00;;;;;;475744;249;1185;-38
2022/02/02 05:44:37;;;;;;;;;;;22.80;30.90;;;;;;462065;249;2212;-38
2022/02/02 05:49:05;;;;;;;;;;;22.80;31.00;;;;;;475745;249;1053;-38
2022/02/02 05:51:12;;;;;;;;;;;22.90;31.00;;;;;;474580;250;2339;-38
2022/02/02 05:53:04;;;;;;;;;;;22.90;31.00;;;;;;475135;250;2376;-38
2022/02/02 05:55:05;;;;;;;;;;;22.90;31.00;;;;;;475629;251;1238;-38
2022/02/02 05:57:06;;;;;;;;;;;22.90;31.00;;;;;;475697;250;1173;-38
2022/02/02 05:59:08;;;;;;;;;;;22.90;30.90;;;;;;475695;250;1217;-38
2022/02/02 06:01:09;;;;;;;;;;;22.90;31.00;;;;;;475434;251;1265;-38
2022/02/02 06:03:10;;;;;;;;;;;22.90;31.00;;;;;;475509;251;2188;-38
2022/02/02 06:05:12;;;;;;;;;;;22.90;31.00;;;;;;475381;251;1265;-38
2022/02/02 06:07:13;;;;;;;;;;;22.90;31.00;;;;;;475345;251;1200;-38
2022/02/02 06:09:14;;;;;;;;;;;22.90;31.00;;;;;;475471;251;1354;-38
2022/02/02 06:11:16;;;;;;;;;;;22.90;31.00;;;;;;475703;250;1155;-38
2022/02/02 06:13:17;;;;;;;;;;;22.90;30.90;;;;;;475563;251;1249;-38
2022/02/02 06:15:19;;;;;;;;;;;22.90;31.00;;;;;;475723;250;1229;-38
2022/02/02 06:17:21;;;;;;;;;;;22.90;31.00;;;;;;475424;250;1210;-38
2022/02/02 06:19:24;;;;;;;;;;;22.90;30.90;;;;;;475475;250;1540;-38
2022/02/02 06:21:23;;;;;;;;;;;22.90;31.00;;;;;;475483;250;1423;-38
2022/02/02 06:23:24;;;;;;;;;;;22.90;30.90;;;;;;475672;250;2196;-38
2022/02/02 06:25:25;;;;;;;;;;;22.90;30.90;;;;;;475690;250;1283;-38
2022/02/02 06:27:26;;;;;;;;;;;22.90;31.00;;;;;;475699;250;1351;-38
2022/02/02 06:29:28;;;;;;;;;;;22.90;31.00;;;;;;475539;250;1099;-38
2022/02/02 06:31:29;;;;;;;;;;;23.00;31.00;;;;;;475391;251;1260;-38
2022/02/02 06:33:30;;;;;;;;;;;22.90;30.90;;;;;;475651;250;1650;-38
2022/02/02 06:35:32;;;;;;;;;;;22.90;31.00;;;;;;475451;250;1248;-38
2022/02/02 06:37:33;;;;;;;;;;;22.90;31.00;;;;;;475322;251;1160;-38
2022/02/02 06:39:35;;;;;;;;;;;22.90;31.00;;;;;;475345;251;1582;-38
2022/02/02 06:41:36;;;;;;;;;;;22.90;31.00;;;;;;475320;251;1170;-38
2022/02/02 06:43:37;;;;;;;;;;;22.90;31.00;;;;;;475586;250;2142;-38
2022/02/02 06:45:39;;;;;;;;;;;22.90;31.00;;;;;;475458;250;1133;-38
2022/02/02 06:47:40;;;;;;;;;;;23.00;31.10;;;;;;475444;251;1182;-38
2022/02/02 06:49:44;;;;;;;;;;;22.90;31.00;;;;;;475474;250;1092;-38
2022/02/02 06:51:49;;;;;;;;;;;22.90;31.00;;;;;;475182;250;2365;-38
2022/02/02 06:53:48;;;;;;;;;;;23.00;31.00;;;;;;475054;250;2092;-38
2022/02/02 06:55:53;;;;;;;;;;;23.00;31.00;;;;;;475305;250;1912;-38
2022/02/02 06:57:51;;;;;;;;;;;23.00;31.00;;;;;;475052;250;2292;-38
2022/02/02 06:59:58;;;;;;;;;;;23.00;30.90;;;;;;475421;250;1951;-38
2022/02/02 07:02:03;;;;;;;;;;;23.00;31.00;;;;;;474813;250;1648;-38
2022/02/02 07:04:03;;;;;;;;;;;23.00;30.90;;;;;;474956;250;2205;-38
2022/02/02 07:06:10;;;;;;;;;;;23.00;31.00;;;;;;474889;250;2009;-38
2022/02/02 07:08:13;;;;;;;;;;;23.00;31.00;;;;;;474906;250;2195;-38
2022/02/02 07:10:16;;;;;;;;;;;23.00;31.00;;;;;;474726;250;1425;-38
2022/02/02 07:12:19;;;;;;;;;;;23.00;30.90;;;;;;474691;250;2230;-38
2022/02/02 07:14:19;;;;;;;;;;;23.00;30.90;;;;;;474869;250;2037;-38
2022/02/02 07:16:25;;;;;;;;;;;23.00;30.90;;;;;;474811;250;1381;-38
2022/02/02 07:18:27;;;;;;;;;;;23.00;30.80;;;;;;474762;250;1974;-38
2022/02/02 07:20:28;;;;;;;;;;;23.00;30.80;;;;;;474562;250;1934;-38
2022/02/02 07:22:43;;;;;;;;;;;23.00;30.80;;;;;;474546;250;2297;-38
2022/02/02 07:24:50;;;;;;;;;;;23.10;30.80;;;;;;474414;250;2196;-38
2022/02/02 07:27:05;;;;;;;;;;;23.00;30.70;;;;;;474105;250;2203;-38
2022/02/02 07:28:59;;;;;;;;;;;23.10;30.80;;;;;;474377;250;2174;-38
2022/02/02 07:31:01;;;;;;;;;;;23.10;30.80;;;;;;474916;250;2218;-38
2022/02/02 07:33:07;;;;;;;;;;;23.10;30.80;;;;;;474716;250;1825;-38
2022/02/02 07:35:06;;;;;;;;;;;23.10;30.80;;;;;;474420;250;2782;-38
2022/02/02 07:37:03;;;;;;;;;;;23.10;30.70;;;;;;474620;250;2199;-38
2022/02/02 07:39:03;;;;;;;;;;;23.10;30.80;;;;;;475069;250;2198;-38
2022/02/02 07:41:08;;;;;;;;;;;23.10;30.70;;;;;;475152;250;1324;-38
2022/02/02 07:43:08;;;;;;;;;;;23.10;30.80;;;;;;475056;247;1923;-38
2022/02/02 07:45:11;;;;;;;;;;;23.10;30.70;;;;;;475070;251;2196;-38
2022/02/02 07:47:12;;;;;;;;;;;23.10;30.80;;;;;;475028;251;2104;-38
2022/02/02 07:49:12;;;;;;;;;;;23.10;30.80;;;;;;475257;250;2283;-38
2022/02/02 07:51:15;;;;;;;;;;;23.10;30.80;;;;;;475083;250;1233;-38
2022/02/02 07:53:21;;;;;;;;;;;23.10;30.70;;;;;;475133;250;2898;-38
2022/02/02 07:55:16;;;;;;;;;;;23.10;30.80;;;;;;474506;250;2221;-41
2022/02/02 07:57:25;;;;;;;;;;;23.10;30.70;;;;;;474872;251;1224;-38
2022/02/02 07:59:24;;;;;;;;;;;23.10;30.80;;;;;;474562;250;1989;-38
2022/02/02 08:01:21;;;;;;;;;;;23.10;30.80;;;;;;474699;250;1424;-38
2022/02/02 08:03:24;;;;;;;;;;;23.10;30.70;;;;;;475080;251;1344;-38
2022/02/02 08:05:24;;;;;;;;;;;23.10;30.70;;;;;;474891;250;2245;-38
2022/02/02 08:07:30;;;;;;;;;;;23.10;30.70;;;;;;475020;251;1203;-38
2022/02/02 08:09:33;;;;;;;;;;;23.10;30.80;;;;;;474788;250;2170;-38
2022/02/02 08:11:34;;;;;;;;;;;23.10;30.70;;;;;;474784;251;2207;-38
2022/02/02 08:13:38;;;;;;;;;;;23.10;30.70;;;;;;474846;250;1373;-38
2022/02/02 08:15:39;;;;;;;;;;;23.10;30.70;;;;;;474972;250;2233;-38
2022/02/02 08:17:40;;;;;;;;;;;23.10;30.70;;;;;;475373;250;1128;-38
2022/02/02 08:19:41;;;;;;;;;;;23.10;30.70;;;;;;475092;250;1272;-38
2022/02/02 08:21:42;;;;;;;;;;;23.10;30.70;;;;;;475051;250;1338;-38
2022/02/02 08:23:45;;;;;;;;;;;23.00;30.80;;;;;;475081;251;2223;-38
2022/02/02 08:25:45;;;;;;;;;;;23.10;30.80;;;;;;475077;250;1332;-38
2022/02/02 08:27:48;;;;;;;;;;;22.90;31.00;;;;;;475057;250;1229;-38
2022/02/02 08:29:48;;;;;;;;;;;22.70;31.30;;;;;;474989;251;1845;-38
2022/02/02 08:31:49;;;;;;;;;;;22.50;31.50;;;;;;474976;250;1271;-38
2022/02/02 08:33:53;;;;;;;;;;;22.40;31.80;;;;;;474985;251;1187;-38
2022/02/02 08:35:54;;;;;;;;;;;22.30;32.00;;;;;;474785;250;1261;-38
2022/02/02 08:38:00;;;;;;;;;;;22.20;32.00;;;;;;475064;250;1249;-38
2022/02/02 08:40:07;;;;;;;;;;;22.20;32.00;;;;;;474718;250;1771;-38
2022/02/02 08:42:02;;;;;;;;;;;22.10;32.20;;;;;;474274;250;2007;-38
2022/02/02 08:44:02;;;;;;;;;;;22.10;32.30;;;;;;474865;250;2192;-38
2022/02/02 08:46:05;;;;;;;;;;;22.00;32.30;;;;;;474656;250;2070;-38
2022/02/02 08:48:04;;;;;;;;;;;22.00;32.30;;;;;;475054;250;1999;-38
2022/02/02 08:50:03;;;;;;;;;;;22.00;32.40;;;;;;474802;250;2060;-38
2022/02/02 08:52:04;;;;;;;;;;;22.00;32.40;;;;;;474794;251;2017;-38
2022/02/02 08:54:13;;;;;;;;;;;22.00;32.50;;;;;;474990;250;1423;-38
2022/02/02 08:56:32;;;;;;;;;;;21.90;32.50;;;;;;474637;250;1885;-38
2022/02/02 08:58:24;;;;;;;;;;;21.90;32.50;;;;;;473963;250;2126;-38
2022/02/02 09:00:24;;;;;;;;;;;21.90;32.50;;;;;;474771;250;2486;-38
2022/02/02 09:02:28;;;;;;;;;;;21.90;32.60;;;;;;474829;250;2067;-38
2022/02/02 09:06:45;;;;;;;;;;;21.90;32.60;;;;;;474961;246;1200;-38
2022/02/02 09:08:49;;;;;;;;;;;21.80;32.50;;;;;;475130;250;1069;-38
2022/02/02 09:20:16;;;;;;;;;;;21.80;32.40;;;;;;475146;249;1101;-38
2022/02/02 09:24:35;;;;;;;;;;;21.80;32.50;;;;;;474954;249;2126;-38
2022/02/02 09:31:33;;;;;;;;;;;21.80;32.60;;;;;;474720;250;1437;-38
2022/02/02 09:33:54;;;;;;;;;;;21.80;32.60;;;;;;474496;250;1743;-38
2022/02/02 09:35:54;;;;;;;;;;;21.70;32.60;;;;;;474633;250;1997;-38
2022/02/02 09:37:54;;;;;;;;;;;21.70;32.70;;;;;;474696;251;2098;-38
2022/02/02 09:40:08;;;;;;;;;;;21.70;32.60;;;;;;475277;250;1118;-38
2022/02/02 09:42:04;;;;;;;;;;;21.70;32.60;;;;;;474428;250;1889;-38
2022/02/02 09:44:05;;;;;;;;;;;21.70;32.60;;;;;;475145;250;2690;-38
2022/02/02 09:46:09;;;;;;;;;;;21.70;32.70;;;;;;474849;250;1519;-38
2022/02/02 09:48:12;;;;;;;;;;;21.70;32.70;;;;;;474782;250;2236;-38
2022/02/02 09:50:13;;;;;;;;;;;21.60;32.70;;;;;;474610;250;1241;-38
2022/02/02 09:52:12;;;;;;;;;;;21.70;32.70;;;;;;474558;250;1273;-38
2022/02/02 09:54:16;;;;;;;;;;;21.70;32.70;;;;;;474599;250;2222;-38
2022/02/02 09:56:23;;;;;;;;;;;21.70;32.70;;;;;;474465;246;2266;-38
2022/02/02 09:58:31;;;;;;;;;;;21.70;32.70;;;;;;474483;250;1639;-38
2022/02/02 10:00:45;;;;;;;;;;;21.60;32.70;;;;;;474530;250;1567;-38
2022/02/02 10:03:00;;;;;;;;;;;21.60;32.70;;;;;;474566;250;1962;-38
2022/02/02 10:04:49;;;;;;;;;;;21.60;32.70;;;;;;474051;250;2205;-38
2022/02/02 10:06:59;;;;;;;;;;;21.60;32.80;;;;;;474740;251;1215;-38
2022/02/02 10:09:20;;;;;;;;;;;21.60;32.80;;;;;;474843;250;2033;-38
2022/02/02 10:11:26;;;;;;;;;;;21.60;32.80;;;;;;474632;250;1728;-38
2022/02/02 10:13:26;;;;;;;;;;;21.60;32.80;;;;;;474383;250;2241;-38
2022/02/02 10:15:26;;;;;;;;;;;21.60;32.80;;;;;;474710;250;2050;-38
2022/02/02 10:17:26;;;;;;;;;;;21.50;32.80;;;;;;474751;250;1380;-38
2022/02/02 10:19:28;;;;;;;;;;;21.60;32.80;;;;;;474969;250;1091;-38
2022/02/02 10:21:29;;;;;;;;;;;21.50;32.80;;;;;;474857;247;1331;-38
2022/02/02 10:23:30;;;;;;;;;;;21.50;32.80;;;;;;474997;250;1104;-38
2022/02/02 10:25:32;;;;;;;;;;;21.50;32.80;;;;;;474908;250;2384;-38
2022/02/02 10:27:35;;;;;;;;;;;21.50;32.80;;;;;;474856;250;1286;-38
2022/02/02 10:29:34;;;;;;;;;;;21.50;32.70;;;;;;474772;250;1450;-38
2022/02/02 10:31:36;;;;;;;;;;;21.60;32.70;;;;;;474673;251;1208;-38
2022/02/02 10:33:37;;;;;;;;;;;21.50;32.70;;;;;;474940;250;1349;-38
2022/02/02 10:35:38;;;;;;;;;;;21.50;32.80;;;;;;475044;250;1169;-38
2022/02/02 10:37:46;;;;;;;;;;;21.50;32.80;;;;;;475159;250;1301;-38
2022/02/02 10:39:41;;;;;;;;;;;21.50;32.80;;;;;;474611;250;2123;-38
2022/02/02 10:41:45;;;;;;;;;;;21.50;32.80;;;;;;475000;251;1436;-38
2022/02/02 10:43:50;;;;;;;;;;;21.50;32.70;;;;;;474882;250;1256;-38
2022/02/02 10:45:46;;;;;;;;;;;21.50;32.70;;;;;;474594;250;2345;-38
2022/02/02 10:47:51;;;;;;;;;;;21.50;32.70;;;;;;474922;250;1245;-38
2022/02/02 10:49:57;;;;;;;;;;;21.50;32.70;;;;;;474695;250;2232;-38
2022/02/02 10:51:55;;;;;;;;;;;21.50;32.70;;;;;;474427;250;2067;-38
2022/02/02 10:54:07;;;;;;;;;;;21.50;32.70;;;;;;474854;250;2169;-38
2022/02/02 10:56:06;;;;;;;;;;;21.50;32.70;;;;;;474628;250;2257;-38
2022/02/02 10:58:17;;;;;;;;;;;21.50;32.70;;;;;;474897;250;1950;-38
2022/02/02 11:00:11;;;;;;;;;;;21.40;32.70;;;;;;474320;250;2127;-38
2022/02/02 11:06:45;;;;;;;;;;;21.50;32.80;;;;;;475039;249;1484;-38
2022/02/02 11:08:47;;;;;;;;;;;21.50;32.80;;;;;;474958;250;1191;-38
2022/02/02 11:10:49;;;;;;;;;;;21.50;32.80;;;;;;474854;250;1145;-38
2022/02/02 11:12:49;;;;;;;;;;;21.40;32.80;;;;;;474827;250;1323;-38
2022/02/02 11:14:51;;;;;;;;;;;21.40;32.80;;;;;;474832;251;1156;-38
2022/02/02 11:16:52;;;;;;;;;;;21.40;32.80;;;;;;474730;250;1394;-38
2022/02/02 11:18:53;;;;;;;;;;;21.40;32.80;;;;;;474935;251;1369;-38
2022/02/02 11:20:55;;;;;;;;;;;21.40;32.80;;;;;;475046;250;1390;-38
2022/02/02 11:22:56;;;;;;;;;;;21.40;32.80;;;;;;475037;251;1189;-38
2022/02/02 11:24:58;;;;;;;;;;;21.40;32.90;;;;;;475099;250;2192;-38
2022/02/02 11:26:59;;;;;;;;;;;21.40;32.80;;;;;;475072;251;1242;-38
2022/02/02 11:29:00;;;;;;;;;;;21.40;32.80;;;;;;475033;250;1184;-38
2022/02/02 11:31:02;;;;;;;;;;;21.40;32.80;;;;;;474937;247;1155;-38
2022/02/02 11:33:03;;;;;;;;;;;21.40;32.90;;;;;;475001;251;1253;-38
2022/02/02 11:35:05;;;;;;;;;;;21.40;32.80;;;;;;475165;250;1047;-38
2022/02/02 11:37:07;;;;;;;;;;;21.40;32.80;;;;;;475090;250;1805;-38
2022/02/02 11:39:08;;;;;;;;;;;21.40;32.80;;;;;;475070;250;2225;-38
2022/02/02 11:41:14;;;;;;;;;;;21.40;32.80;;;;;;474898;250;2189;-38
2022/02/02 11:43:13;;;;;;;;;;;21.40;32.90;;;;;;474838;250;2217;-38
2022/02/02 11:45:17;;;;;;;;;;;21.40;32.90;;;;;;474962;250;2184;-38
2022/02/02 11:47:21;;;;;;;;;;;21.40;32.90;;;;;;474800;250;1622;-38
2022/02/02 11:49:16;;;;;;;;;;;21.40;32.90;;;;;;474571;250;2281;-38
2022/02/02 11:51:16;;;;;;;;;;;21.40;32.80;;;;;;475460;250;2274;-38
2022/02/02 11:53:17;;;;;;;;;;;21.40;32.90;;;;;;475028;251;1100;-38
2022/02/02 11:55:19;;;;;;;;;;;21.30;32.80;;;;;;475004;250;1150;-38
2022/02/02 11:57:24;;;;;;;;;;;21.40;32.80;;;;;;475089;251;1154;-38
2022/02/02 11:59:23;;;;;;;;;;;21.40;32.80;;;;;;475005;250;2191;-38
2022/02/02 12:01:28;;;;;;;;;;;21.40;32.80;;;;;;474988;250;1126;-38
2022/02/02 12:03:36;;;;;;;;;;;21.40;32.80;;;;;;474765;250;1822;-38
2022/02/02 12:05:50;;;;;;;;;;;21.40;32.80;;;;;;474545;250;2188;-38
2022/02/02 12:07:41;;;;;;;;;;;21.40;32.80;;;;;;474145;250;2164;-38
2022/02/02 12:09:46;;;;;;;;;;;21.40;32.70;;;;;;474911;250;1331;-38
2022/02/02 12:47:31;;;;;;;;;;;21.40;32.70;;;;;;469565;249;1170;-38
2022/02/02 12:49:42;;;;;;;;;;;21.40;32.70;;;;;;475175;250;2094;-38
2022/02/02 12:54:37;;;;;;;;;;;21.40;32.70;;;;;;475035;249;1082;-38
2022/02/02 12:56:35;;;;;;;;;;;21.40;32.70;;;;;;473479;251;1862;-38
2022/02/02 12:58:37;;;;;;;;;;;21.40;32.70;;;;;;475251;250;1565;-38
2022/02/02 13:00:40;;;;;;;;;;;21.40;32.80;;;;;;474908;250;2173;-38
2022/02/02 13:02:38;;;;;;;;;;;21.40;32.80;;;;;;475039;250;1381;-38
2022/02/02 13:04:39;;;;;;;;;;;21.30;32.70;;;;;;475294;250;1015;-38
2022/02/02 13:06:41;;;;;;;;;;;21.30;32.80;;;;;;474718;250;2207;-38
2022/02/02 13:08:42;;;;;;;;;;;21.30;32.70;;;;;;474781;251;1082;-38
2022/02/02 13:10:43;;;;;;;;;;;21.40;32.80;;;;;;475257;247;1449;-38
2022/02/02 13:12:52;;;;;;;;;;;21.40;32.80;;;;;;475043;250;1316;-39
2022/02/02 13:15:06;;;;;;;;;;;21.30;32.70;;;;;;474540;250;1936;-38
2022/02/02 13:16:53;;;;;;;;;;;21.40;32.80;;;;;;474131;250;2132;-38
2022/02/02 13:19:01;;;;;;;;;;;21.30;32.80;;;;;;474943;250;1164;-38
2022/02/02 13:21:01;;;;;;;;;;;21.40;32.80;;;;;;474644;247;2341;-38
2022/02/02 13:22:59;;;;;;;;;;;21.40;32.80;;;;;;474869;250;2045;-38
2022/02/02 13:25:02;;;;;;;;;;;21.30;32.80;;;;;;474800;250;1295;-38
2022/02/02 13:27:06;;;;;;;;;;;21.30;32.80;;;;;;474719;250;2522;-38
2022/02/02 13:29:08;;;;;;;;;;;21.30;32.80;;;;;;474857;250;2245;-38
2022/02/02 13:31:05;;;;;;;;;;;21.30;32.80;;;;;;474725;250;2072;-38
2022/02/02 13:33:08;;;;;;;;;;;21.40;32.80;;;;;;475149;250;1269;-38
2022/02/02 13:35:16;;;;;;;;;;;21.40;32.70;;;;;;474861;250;2052;-38
2022/02/02 13:37:18;;;;;;;;;;;21.50;32.70;;;;;;474381;250;2349;-38
2022/02/02 13:39:27;;;;;;;;;;;21.40;32.70;;;;;;474832;250;2104;-38
2022/02/02 13:43:52;;;;;;;;;;;21.40;32.80;;;;;;475428;249;1061;-38
2022/02/02 13:48:08;;;;;;;;;;;21.40;32.90;;;;;;475299;249;1133;-38
2022/02/02 13:50:25;;;;;;;;;;;21.40;32.80;;;;;;474480;250;2161;-38
2022/02/02 13:52:25;;;;;;;;;;;21.40;32.80;;;;;;473610;251;1981;-38
2022/02/02 13:54:43;;;;;;;;;;;21.40;32.80;;;;;;474591;250;2094;-38
2022/02/02 13:59:48;;;;;;;;;;;21.40;32.90;;;;;;475064;251;1148;-38
2022/02/02 14:01:43;;;;;;;;;;;21.40;32.80;;;;;;473347;250;2228;-38
2022/02/02 14:03:55;;;;;;;;;;;21.40;32.90;;;;;;474901;250;2026;-38
2022/02/02 14:06:05;;;;;;;;;;;21.40;32.90;;;;;;474530;250;2290;-38
2022/02/02 14:10:34;;;;;;;;;;;21.40;32.80;;;;;;474869;250;1403;-38
2022/02/02 14:31:12;;;;;;;;;;;21.40;32.80;;;;;;474881;249;1448;-38
2022/02/02 14:33:12;;;;;;;;;;;21.40;32.90;;;;;;475288;250;2118;-38
2022/02/02 14:35:16;;;;;;;;;;;21.40;32.80;;;;;;475364;250;766;-38
2022/02/02 14:37:19;;;;;;;;;;;21.40;32.80;;;;;;474715;250;1802;-38
2022/02/02 14:39:21;;;;;;;;;;;21.40;32.80;;;;;;475036;250;1418;-38
2022/02/02 14:41:27;;;;;;;;;;;21.40;32.80;;;;;;474827;247;2185;-38
2022/02/02 14:43:23;;;;;;;;;;;21.40;32.80;;;;;;474538;250;1540;-38
2022/02/02 14:45:25;;;;;;;;;;;21.40;32.80;;;;;;474926;250;2061;-38
2022/02/02 14:47:29;;;;;;;;;;;21.40;32.90;;;;;;474748;250;2200;-38
2022/02/02 14:49:30;;;;;;;;;;;21.40;32.80;;;;;;474514;250;2230;-38
2022/02/02 14:51:37;;;;;;;;;;;21.40;32.90;;;;;;474410;250;1507;-38
2022/02/02 14:53:38;;;;;;;;;;;21.40;32.90;;;;;;474451;250;2058;-38
2022/02/02 15:05:21;;;;;;;;;;;21.40;32.80;;;;;;475047;250;1240;-38
2022/02/02 15:16:41;;;;;;;;;;;21.40;32.80;;;;;;475608;249;934;-38
2022/02/02 15:23:49;;;;;;;;;;;21.40;32.90;;;;;;467157;250;1590;-38
2022/02/02 15:28:16;;;;;;;;;;;21.40;32.90;;;;;;474917;250;1436;-38
2022/02/02 15:30:23;;;;;;;;;;;21.40;32.90;;;;;;474727;250;2458;-38
2022/02/02 15:32:23;;;;;;;;;;;21.30;32.90;;;;;;474892;250;2009;-38
2022/02/02 15:34:31;;;;;;;;;;;21.30;32.90;;;;;;475111;251;1116;-38
2022/02/02 15:36:57;;;;;;;;;;;21.40;32.90;;;;;;474488;250;2417;-38
2022/02/02 15:38:37;;;;;;;;;;;21.30;32.90;;;;;;473591;246;1592;-38
2022/02/02 15:40:41;;;;;;;;;;;21.30;32.90;;;;;;474825;250;1828;-38
2022/02/02 15:43:01;;;;;;;;;;;21.30;32.90;;;;;;474676;250;2092;-38
2022/02/02 15:54:42;;;;;;;;;;;21.30;32.90;;;;;;474566;250;2010;-38
2022/02/02 15:58:56;;;;;;;;;;;21.30;32.80;;;;;;475231;250;1176;-38
2022/02/02 16:03:26;;;;;;;;;;;21.40;32.90;;;;;;464615;249;1331;-38
2022/02/02 16:05:29;;;;;;;;;;;21.30;32.80;;;;;;475502;250;2273;-38
2022/02/02 16:07:29;;;;;;;;;;;21.30;32.90;;;;;;474914;250;2638;-38
2022/02/02 16:09:37;;;;;;;;;;;21.30;32.90;;;;;;474814;250;2167;-38
2022/02/02 16:11:31;;;;;;;;;;;21.30;32.90;;;;;;474325;250;2131;-38
2022/02/02 16:13:37;;;;;;;;;;;21.30;32.90;;;;;;474896;251;1886;-38
2022/02/02 16:15:35;;;;;;;;;;;21.30;32.90;;;;;;474834;250;1440;-38
2022/02/02 16:18:03;;;;;;;;;;;21.30;33.00;;;;;;475053;250;2310;-38
2022/02/02 16:25:00;;;;;;;;;;;21.20;33.00;;;;;;475134;250;1200;-38
2022/02/02 16:31:36;;;;;;;;;;;21.30;33.10;;;;;;475182;249;1165;-38
2022/02/02 16:36:05;;;;;;;;;;;21.20;33.10;;;;;;475179;250;1124;-38
2022/02/02 16:38:07;;;;;;;;;;;21.20;33.10;;;;;;474939;250;1682;-38